sensor_id;sensor_type;location;lat;lon;timestamp;pressure;altitude;pressure_sealevel;temperature;humidity
21401;BME280;18038;50.166;18.908;2023-05-22T00:00:19;98182.16;;;12.24;54.07
21401;BME280;18038;50.166;18.908;2023-05-22T00:03:30;98178.22;;;12.13;54.29
21401;BME280;18038;50.166;18.908;2023-05-22T00:06:41;98176.56;;;12.12;54.07
21401;BME280;18038;50.166;18.908;2023-05-22T00:09:48;98171.41;;;12.11;54.45
21401;BME280;18038;50.166;18.908;2023-05-22T00:12:57;98169.56;;;12.11;54.46
21401;BME280;18038;50.166;18.908;2023-05-22T00:16:05;98168.94;;;12.09;54.52
21401;BME280;18038;50.166;18.908;2023-05-22T00:19:11;98170.56;;;12.10;54.26
21401;BME280;18038;50.166;18.908;2023-05-22T00:22:28;98169.56;;;12.11;54.02
21401;BME280;18038;50.166;18.908;2023-05-22T00:25:38;98166.31;;;12.29;53.79
21401;BME280;18038;50.166;18.908;2023-05-22T00:28:47;98165.44;;;12.09;54.16
21401;BME280;18038;50.166;18.908;2023-05-22T00:31:55;98157.38;;;12.02;53.90
21401;BME280;18038;50.166;18.908;2023-05-22T00:35:03;98157.34;;;11.95;54.48
21401;BME280;18038;50.166;18.908;2023-05-22T00:38:27;98157.09;;;11.83;54.44
21401;BME280;18038;50.166;18.908;2023-05-22T00:41:36;98152.59;;;11.84;54.39
21401;BME280;18038;50.166;18.908;2023-05-22T00:44:45;98152.94;;;11.74;54.83
21401;BME280;18038;50.166;18.908;2023-05-22T00:47:57;98149.84;;;11.71;54.30
21401;BME280;18038;50.166;18.908;2023-05-22T00:51:20;98146.78;;;11.74;54.32
21401;BME280;18038;50.166;18.908;2023-05-22T00:54:44;98150.44;;;11.73;54.36
21401;BME280;18038;50.166;18.908;2023-05-22T00:58:09;98145.31;;;11.71;54.31
21401;BME280;18038;50.166;18.908;2023-05-22T01:01:36;98137.69;;;11.68;53.93
21401;BME280;18038;50.166;18.908;2023-05-22T01:04:59;98148.72;;;11.58;54.05
21401;BME280;18038;50.166;18.908;2023-05-22T01:08:29;98144.53;;;11.49;54.37
21401;BME280;18038;50.166;18.908;2023-05-22T01:12:09;98144.53;;;11.49;54.40
21401;BME280;18038;50.166;18.908;2023-05-22T01:15:51;98142.66;;;11.43;54.72
21401;BME280;18038;50.166;18.908;2023-05-22T01:19:53;98131.75;;;11.38;54.57
21401;BME280;18038;50.166;18.908;2023-05-22T01:28:01;98132.72;;;11.30;55.05
21401;BME280;18038;50.166;18.908;2023-05-22T01:31:26;98135.16;;;11.25;54.75
21401;BME280;18038;50.166;18.908;2023-05-22T01:34:43;98134.91;;;11.20;54.85
21401;BME280;18038;50.166;18.908;2023-05-22T01:37:57;98125.84;;;11.14;54.82
21401;BME280;18038;50.166;18.908;2023-05-22T01:41:07;98129.72;;;11.12;54.90
21401;BME280;18038;50.166;18.908;2023-05-22T01:44:13;98131.34;;;11.06;54.76
21401;BME280;18038;50.166;18.908;2023-05-22T01:47:38;98126.56;;;11.02;54.89
21401;BME280;18038;50.166;18.908;2023-05-22T01:51:04;98124.94;;;11.01;55.03
21401;BME280;18038;50.166;18.908;2023-05-22T01:54:38;98124.28;;;10.99;55.25
21401;BME280;18038;50.166;18.908;2023-05-22T01:58:18;98119.34;;;10.95;54.69
21401;BME280;18038;50.166;18.908;2023-05-22T02:01:50;98123.03;;;10.94;55.12
21401;BME280;18038;50.166;18.908;2023-05-22T02:05:25;98122.44;;;10.99;55.05
21401;BME280;18038;50.166;18.908;2023-05-22T02:08:54;98113.13;;;10.88;54.83
21401;BME280;18038;50.166;18.908;2023-05-22T02:12:16;98116.19;;;10.85;54.89
21401;BME280;18038;50.166;18.908;2023-05-22T02:15:38;98130.19;;;10.87;55.18
21401;BME280;18038;50.166;18.908;2023-05-22T02:19:01;98122.31;;;10.79;54.80
21401;BME280;18038;50.166;18.908;2023-05-22T02:22:26;98122.19;;;10.66;54.74
21401;BME280;18038;50.166;18.908;2023-05-22T02:25:47;98116.03;;;10.65;55.00
21401;BME280;18038;50.166;18.908;2023-05-22T02:29:08;98112.56;;;10.65;55.01
21401;BME280;18038;50.166;18.908;2023-05-22T02:32:30;98113.38;;;10.65;55.06
21401;BME280;18038;50.166;18.908;2023-05-22T02:35:52;98116.47;;;10.69;54.68
21401;BME280;18038;50.166;18.908;2023-05-22T02:39:16;98114.19;;;10.66;54.92
21401;BME280;18038;50.166;18.908;2023-05-22T02:42:37;98116.84;;;10.66;54.88
21401;BME280;18038;50.166;18.908;2023-05-22T02:45:58;98116.44;;;10.62;55.02
21401;BME280;18038;50.166;18.908;2023-05-22T02:49:19;98117.81;;;10.58;54.89
21401;BME280;18038;50.166;18.908;2023-05-22T02:52:40;98116.19;;;10.57;54.94
21401;BME280;18038;50.166;18.908;2023-05-22T02:56:05;98111.41;;;10.52;55.06
21401;BME280;18038;50.166;18.908;2023-05-22T02:59:28;98120.38;;;10.45;55.27
21401;BME280;18038;50.166;18.908;2023-05-22T03:02:49;98119.94;;;10.41;55.56
21401;BME280;18038;50.166;18.908;2023-05-22T03:05:56;98120.00;;;10.48;55.54
21401;BME280;18038;50.166;18.908;2023-05-22T03:09:03;98113.41;;;10.44;55.43
21401;BME280;18038;50.166;18.908;2023-05-22T03:12:13;98126.75;;;10.44;55.78
21401;BME280;18038;50.166;18.908;2023-05-22T03:15:22;98122.47;;;10.49;55.16
21401;BME280;18038;50.166;18.908;2023-05-22T03:18:33;98116.75;;;10.52;55.49
21401;BME280;18038;50.166;18.908;2023-05-22T03:21:40;98122.97;;;10.60;54.95
21401;BME280;18038;50.166;18.908;2023-05-22T03:24:48;98122.97;;;10.60;54.58
21401;BME280;18038;50.166;18.908;2023-05-22T03:27:58;98123.22;;;10.65;55.16
21401;BME280;18038;50.166;18.908;2023-05-22T03:31:09;98120.16;;;10.68;55.08
21401;BME280;18038;50.166;18.908;2023-05-22T03:34:31;98115.06;;;10.73;54.56
21401;BME280;18038;50.166;18.908;2023-05-22T03:37:39;98114.38;;;10.64;55.10
21401;BME280;18038;50.166;18.908;2023-05-22T03:40:52;98109.91;;;10.71;54.86
21401;BME280;18038;50.166;18.908;2023-05-22T03:44:12;98114.81;;;10.96;54.05
21401;BME280;18038;50.166;18.908;2023-05-22T03:47:18;98121.84;;;10.97;54.45
21401;BME280;18038;50.166;18.908;2023-05-22T03:50:25;98121.31;;;11.15;53.88
21401;BME280;18038;50.166;18.908;2023-05-22T03:53:31;98123.75;;;11.45;53.11
21401;BME280;18038;50.166;18.908;2023-05-22T03:56:38;98118.16;;;11.81;51.94
21401;BME280;18038;50.166;18.908;2023-05-22T03:59:48;98127.13;;;12.15;50.97
21401;BME280;18038;50.166;18.908;2023-05-22T04:02:55;98131.13;;;12.45;50.35
21401;BME280;18038;50.166;18.908;2023-05-22T04:06:23;98129.72;;;12.83;49.28
21401;BME280;18038;50.166;18.908;2023-05-22T04:09:31;98142.06;;;12.97;49.18
21401;BME280;18038;50.166;18.908;2023-05-22T04:12:51;98124.53;;;13.14;48.51
21401;BME280;18038;50.166;18.908;2023-05-22T04:16:19;98130.84;;;13.53;47.56
21401;BME280;18038;50.166;18.908;2023-05-22T04:19:40;98126.19;;;13.80;47.30
21401;BME280;18038;50.166;18.908;2023-05-22T04:23:01;98123.97;;;14.16;46.36
21401;BME280;18038;50.166;18.908;2023-05-22T04:26:23;98122.53;;;14.52;44.85
21401;BME280;18038;50.166;18.908;2023-05-22T04:29:46;98119.97;;;15.14;43.92
21401;BME280;18038;50.166;18.908;2023-05-22T04:33:09;98118.41;;;15.24;43.20
21401;BME280;18038;50.166;18.908;2023-05-22T04:36:16;98116.09;;;15.28;43.62
21401;BME280;18038;50.166;18.908;2023-05-22T04:39:24;98119.09;;;15.56;42.73
21401;BME280;18038;50.166;18.908;2023-05-22T04:42:33;98117.13;;;16.01;41.98
21401;BME280;18038;50.166;18.908;2023-05-22T04:45:40;98120.28;;;16.28;41.33
21401;BME280;18038;50.166;18.908;2023-05-22T04:48:55;98117.53;;;16.46;40.89
21401;BME280;18038;50.166;18.908;2023-05-22T04:52:05;98119.72;;;16.07;41.63
21401;BME280;18038;50.166;18.908;2023-05-22T04:55:14;98116.50;;;16.17;41.01
21401;BME280;18038;50.166;18.908;2023-05-22T04:58:21;98120.94;;;16.11;41.80
21401;BME280;18038;50.166;18.908;2023-05-22T05:01:31;98113.94;;;16.22;40.74
21401;BME280;18038;50.166;18.908;2023-05-22T05:04:40;98111.88;;;16.06;41.38
21401;BME280;18038;50.166;18.908;2023-05-22T05:07:48;98112.38;;;16.14;41.60
21401;BME280;18038;50.166;18.908;2023-05-22T05:11:10;98124.53;;;16.05;42.28
21401;BME280;18038;50.166;18.908;2023-05-22T05:14:32;98115.28;;;16.31;41.98
21401;BME280;18038;50.166;18.908;2023-05-22T05:17:53;98115.06;;;16.45;41.52
21401;BME280;18038;50.166;18.908;2023-05-22T05:21:18;98121.91;;;16.71;41.05
21401;BME280;18038;50.166;18.908;2023-05-22T05:24:40;98125.59;;;16.76;40.73
21401;BME280;18038;50.166;18.908;2023-05-22T05:28:01;98125.72;;;17.05;40.05
21401;BME280;18038;50.166;18.908;2023-05-22T05:31:28;98133.00;;;16.93;39.82
21401;BME280;18038;50.166;18.908;2023-05-22T05:35:08;98127.03;;;16.91;40.16
21401;BME280;18038;50.166;18.908;2023-05-22T05:38:37;98133.59;;;17.30;39.11
21401;BME280;18038;50.166;18.908;2023-05-22T05:42:05;98126.03;;;17.79;38.64
21401;BME280;18038;50.166;18.908;2023-05-22T05:45:27;98132.00;;;17.93;37.90
21401;BME280;18038;50.166;18.908;2023-05-22T05:48:39;98129.94;;;17.71;38.63
21401;BME280;18038;50.166;18.908;2023-05-22T05:51:46;98118.47;;;16.94;39.67
21401;BME280;18038;50.166;18.908;2023-05-22T05:54:57;98120.81;;;17.02;39.63
21401;BME280;18038;50.166;18.908;2023-05-22T05:58:04;98124.31;;;17.26;39.61
21401;BME280;18038;50.166;18.908;2023-05-22T06:01:24;98122.66;;;17.72;38.72
21401;BME280;18038;50.166;18.908;2023-05-22T06:04:46;98115.84;;;17.69;38.38
21401;BME280;18038;50.166;18.908;2023-05-22T06:08:08;98112.81;;;17.94;38.13
21401;BME280;18038;50.166;18.908;2023-05-22T06:11:33;98117.34;;;18.97;37.01
21401;BME280;18038;50.166;18.908;2023-05-22T06:14:54;98115.66;;;19.90;34.69
21401;BME280;18038;50.166;18.908;2023-05-22T06:18:15;98110.53;;;19.89;34.34
21401;BME280;18038;50.166;18.908;2023-05-22T06:21:24;98114.47;;;20.03;34.35
21401;BME280;18038;50.166;18.908;2023-05-22T06:24:30;98110.91;;;20.79;33.28
21401;BME280;18038;50.166;18.908;2023-05-22T06:27:46;98112.72;;;21.43;32.46
21401;BME280;18038;50.166;18.908;2023-05-22T06:30:53;98110.72;;;21.28;32.06
21401;BME280;18038;50.166;18.908;2023-05-22T06:34:03;98110.03;;;20.73;32.51
21401;BME280;18038;50.166;18.908;2023-05-22T06:37:10;98106.66;;;20.88;31.63
21401;BME280;18038;50.166;18.908;2023-05-22T06:40:19;98107.59;;;21.09;32.35
21401;BME280;18038;50.166;18.908;2023-05-22T06:43:48;98108.50;;;21.20;31.37
21401;BME280;18038;50.166;18.908;2023-05-22T06:47:05;98111.66;;;21.49;31.64
21401;BME280;18038;50.166;18.908;2023-05-22T06:50:12;98114.66;;;21.48;31.87
21401;BME280;18038;50.166;18.908;2023-05-22T06:53:19;98103.56;;;22.27;29.74
21401;BME280;18038;50.166;18.908;2023-05-22T06:56:27;98107.44;;;23.03;28.73
21401;BME280;18038;50.166;18.908;2023-05-22T06:59:56;98103.06;;;23.12;28.31
21401;BME280;18038;50.166;18.908;2023-05-22T07:03:36;98108.97;;;23.55;27.39
21401;BME280;18038;50.166;18.908;2023-05-22T07:07:23;98098.63;;;23.47;27.15
21401;BME280;18038;50.166;18.908;2023-05-22T07:10:49;98103.06;;;23.12;28.00
21401;BME280;18038;50.166;18.908;2023-05-22T07:14:11;98104.69;;;23.24;26.76
21401;BME280;18038;50.166;18.908;2023-05-22T07:17:35;98098.19;;;23.04;28.07
21401;BME280;18038;50.166;18.908;2023-05-22T07:20:45;98101.47;;;22.96;27.18
21401;BME280;18038;50.166;18.908;2023-05-22T07:23:54;98096.50;;;23.24;27.65
21401;BME280;18038;50.166;18.908;2023-05-22T07:27:02;98097.53;;;23.48;26.75
21401;BME280;18038;50.166;18.908;2023-05-22T07:30:10;98090.25;;;23.18;25.32
21401;BME280;18038;50.166;18.908;2023-05-22T07:33:21;98095.44;;;23.19;25.77
21401;BME280;18038;50.166;18.908;2023-05-22T07:36:30;98098.72;;;22.60;25.87
21401;BME280;18038;50.166;18.908;2023-05-22T07:39:40;98088.06;;;21.55;26.95
21401;BME280;18038;50.166;18.908;2023-05-22T07:43:04;98104.75;;;21.31;27.14
21401;BME280;18038;50.166;18.908;2023-05-22T07:46:25;98087.31;;;21.70;26.21
21401;BME280;18038;50.166;18.908;2023-05-22T07:49:46;98097.81;;;21.51;25.47
21401;BME280;18038;50.166;18.908;2023-05-22T07:52:53;98102.56;;;21.28;26.21
21401;BME280;18038;50.166;18.908;2023-05-22T07:56:06;98096.72;;;21.52;25.63
21401;BME280;18038;50.166;18.908;2023-05-22T07:59:14;98099.44;;;21.52;25.34
21401;BME280;18038;50.166;18.908;2023-05-22T08:02:26;98108.22;;;21.64;24.93
21401;BME280;18038;50.166;18.908;2023-05-22T08:05:36;98101.00;;;21.90;25.13
21401;BME280;18038;50.166;18.908;2023-05-22T08:08:43;98103.25;;;22.24;24.23
21401;BME280;18038;50.166;18.908;2023-05-22T08:11:49;98105.16;;;22.23;23.60
21401;BME280;18038;50.166;18.908;2023-05-22T08:14:58;98096.69;;;22.09;25.25
21401;BME280;18038;50.166;18.908;2023-05-22T08:18:09;98096.78;;;22.35;26.27
21401;BME280;18038;50.166;18.908;2023-05-22T08:21:25;98091.91;;;22.52;26.23
21401;BME280;18038;50.166;18.908;2023-05-22T08:24:31;98086.94;;;21.51;25.28
21401;BME280;18038;50.166;18.908;2023-05-22T08:27:38;98086.00;;;21.77;25.94
21401;BME280;18038;50.166;18.908;2023-05-22T08:30:44;98093.50;;;21.55;25.58
21401;BME280;18038;50.166;18.908;2023-05-22T08:33:51;98095.63;;;22.05;25.78
21401;BME280;18038;50.166;18.908;2023-05-22T08:37:09;98086.13;;;22.23;26.37
21401;BME280;18038;50.166;18.908;2023-05-22T08:40:19;98092.97;;;22.31;25.78
21401;BME280;18038;50.166;18.908;2023-05-22T08:43:26;98083.75;;;22.37;25.94
21401;BME280;18038;50.166;18.908;2023-05-22T08:46:37;98079.13;;;22.43;26.13
21401;BME280;18038;50.166;18.908;2023-05-22T08:50:01;98076.31;;;22.12;26.34
21401;BME280;18038;50.166;18.908;2023-05-22T08:53:14;98078.44;;;22.00;26.45
21401;BME280;18038;50.166;18.908;2023-05-22T08:56:26;98071.19;;;21.48;28.09
21401;BME280;18038;50.166;18.908;2023-05-22T08:59:37;98065.25;;;21.08;27.91
21401;BME280;18038;50.166;18.908;2023-05-22T09:02:45;98063.16;;;20.51;28.07
21401;BME280;18038;50.166;18.908;2023-05-22T09:05:55;98064.84;;;20.84;27.02
21401;BME280;18038;50.166;18.908;2023-05-22T09:09:13;98061.88;;;21.38;26.46
21401;BME280;18038;50.166;18.908;2023-05-22T09:12:33;98068.38;;;21.32;25.77
21401;BME280;18038;50.166;18.908;2023-05-22T09:15:40;98058.91;;;22.13;24.85
21401;BME280;18038;50.166;18.908;2023-05-22T09:18:47;98067.13;;;22.33;26.26
21401;BME280;18038;50.166;18.908;2023-05-22T09:22:00;98061.25;;;21.74;25.83
21401;BME280;18038;50.166;18.908;2023-05-22T09:25:21;98064.22;;;21.67;25.24
21401;BME280;18038;50.166;18.908;2023-05-22T09:28:31;98067.94;;;22.44;25.86
21401;BME280;18038;50.166;18.908;2023-05-22T09:31:40;98056.25;;;22.33;24.72
21401;BME280;18038;50.166;18.908;2023-05-22T09:35:06;98064.34;;;22.18;24.69
21401;BME280;18038;50.166;18.908;2023-05-22T09:38:16;98063.59;;;22.94;22.80
21401;BME280;18038;50.166;18.908;2023-05-22T09:41:36;98067.13;;;23.15;23.41
21401;BME280;18038;50.166;18.908;2023-05-22T09:44:47;98067.41;;;22.52;24.34
21401;BME280;18038;50.166;18.908;2023-05-22T09:47:53;98055.06;;;23.42;24.94
21401;BME280;18038;50.166;18.908;2023-05-22T09:51:02;98056.72;;;23.98;25.55
21401;BME280;18038;50.166;18.908;2023-05-22T09:54:10;98054.81;;;23.98;26.51
21401;BME280;18038;50.166;18.908;2023-05-22T09:57:23;98045.50;;;24.10;25.51
21401;BME280;18038;50.166;18.908;2023-05-22T10:00:34;98060.25;;;23.33;24.35
21401;BME280;18038;50.166;18.908;2023-05-22T10:03:42;98044.28;;;23.01;25.98
21401;BME280;18038;50.166;18.908;2023-05-22T10:06:52;98042.53;;;23.41;25.54
21401;BME280;18038;50.166;18.908;2023-05-22T10:10:19;98040.47;;;22.36;25.95
21401;BME280;18038;50.166;18.908;2023-05-22T10:13:33;98016.81;;;22.57;26.18
21401;BME280;18038;50.166;18.908;2023-05-22T10:16:40;98053.72;;;22.06;26.57
21401;BME280;18038;50.166;18.908;2023-05-22T10:19:52;98046.47;;;22.38;26.22
21401;BME280;18038;50.166;18.908;2023-05-22T10:23:02;98042.91;;;22.42;26.92
21401;BME280;18038;50.166;18.908;2023-05-22T10:26:16;98045.81;;;21.95;25.43
21401;BME280;18038;50.166;18.908;2023-05-22T10:29:32;98033.66;;;22.33;25.96
21401;BME280;18038;50.166;18.908;2023-05-22T10:32:51;98037.38;;;21.86;27.06
21401;BME280;18038;50.166;18.908;2023-05-22T10:36:07;98046.28;;;21.76;27.43
21401;BME280;18038;50.166;18.908;2023-05-22T10:39:34;98037.63;;;21.79;26.67
21401;BME280;18038;50.166;18.908;2023-05-22T10:42:47;98042.53;;;21.87;26.94
21401;BME280;18038;50.166;18.908;2023-05-22T10:46:11;98031.03;;;21.60;28.05
21401;BME280;18038;50.166;18.908;2023-05-22T10:49:21;98035.28;;;21.40;27.16
21401;BME280;18038;50.166;18.908;2023-05-22T10:52:31;98046.81;;;21.68;27.38
21401;BME280;18038;50.166;18.908;2023-05-22T10:55:45;98034.66;;;21.28;27.13
21401;BME280;18038;50.166;18.908;2023-05-22T10:58:59;98042.75;;;21.71;26.94
21401;BME280;18038;50.166;18.908;2023-05-22T11:02:25;98035.16;;;21.73;26.55
21401;BME280;18038;50.166;18.908;2023-05-22T11:05:37;98034.31;;;21.62;25.68
21401;BME280;18038;50.166;18.908;2023-05-22T11:08:47;98028.63;;;21.79;23.40
21401;BME280;18038;50.166;18.908;2023-05-22T11:12:14;98027.25;;;21.66;23.18
21401;BME280;18038;50.166;18.908;2023-05-22T11:15:30;98012.09;;;21.85;24.15
21401;BME280;18038;50.166;18.908;2023-05-22T11:18:46;98011.91;;;22.28;24.66
21401;BME280;18038;50.166;18.908;2023-05-22T11:21:59;98019.25;;;22.38;25.65
21401;BME280;18038;50.166;18.908;2023-05-22T11:25:16;98008.38;;;22.32;24.94
21401;BME280;18038;50.166;18.908;2023-05-22T11:28:24;98005.09;;;22.56;24.37
21401;BME280;18038;50.166;18.908;2023-05-22T11:31:33;98003.44;;;22.14;25.78
21401;BME280;18038;50.166;18.908;2023-05-22T11:34:45;98003.47;;;22.45;25.11
21401;BME280;18038;50.166;18.908;2023-05-22T11:37:54;97999.94;;;22.39;25.15
21401;BME280;18038;50.166;18.908;2023-05-22T11:41:00;97999.66;;;22.46;25.09
21401;BME280;18038;50.166;18.908;2023-05-22T11:44:12;98007.22;;;22.08;25.48
21401;BME280;18038;50.166;18.908;2023-05-22T11:47:18;98000.50;;;20.85;26.48
21401;BME280;18038;50.166;18.908;2023-05-22T11:50:42;98005.72;;;20.59;27.55
21401;BME280;18038;50.166;18.908;2023-05-22T11:53:50;98007.66;;;21.59;28.00
21401;BME280;18038;50.166;18.908;2023-05-22T11:56:58;98000.44;;;22.16;26.54
21401;BME280;18038;50.166;18.908;2023-05-22T12:00:11;98006.97;;;22.09;26.53
21401;BME280;18038;50.166;18.908;2023-05-22T12:03:20;98005.91;;;22.67;27.39
21401;BME280;18038;50.166;18.908;2023-05-22T12:06:31;97991.25;;;22.37;26.22
21401;BME280;18038;50.166;18.908;2023-05-22T12:09:38;98006.19;;;22.40;27.30
21401;BME280;18038;50.166;18.908;2023-05-22T12:12:47;98009.66;;;21.99;26.42
21401;BME280;18038;50.166;18.908;2023-05-22T12:15:56;98000.72;;;22.14;27.72
21401;BME280;18038;50.166;18.908;2023-05-22T12:19:06;98002.38;;;22.25;26.24
21401;BME280;18038;50.166;18.908;2023-05-22T12:22:19;97994.13;;;21.69;26.58
21401;BME280;18038;50.166;18.908;2023-05-22T12:25:35;97997.34;;;21.61;27.67
21401;BME280;18038;50.166;18.908;2023-05-22T12:28:41;97992.31;;;21.27;28.05
21401;BME280;18038;50.166;18.908;2023-05-22T12:31:49;97995.38;;;20.93;28.33
21401;BME280;18038;50.166;18.908;2023-05-22T12:34:57;97992.16;;;21.01;28.92
21401;BME280;18038;50.166;18.908;2023-05-22T12:38:24;97989.47;;;21.01;29.31
21401;BME280;18038;50.166;18.908;2023-05-22T12:41:31;97976.22;;;21.10;29.32
21401;BME280;18038;50.166;18.908;2023-05-22T12:44:44;97980.06;;;21.24;29.11
21401;BME280;18038;50.166;18.908;2023-05-22T12:47:50;97978.09;;;21.10;29.58
21401;BME280;18038;50.166;18.908;2023-05-22T12:50:57;97983.28;;;20.69;29.78
21401;BME280;18038;50.166;18.908;2023-05-22T12:54:06;97968.34;;;20.66;29.73
21401;BME280;18038;50.166;18.908;2023-05-22T12:57:13;97967.38;;;20.83;29.72
21401;BME280;18038;50.166;18.908;2023-05-22T13:00:35;97970.47;;;21.01;29.58
21401;BME280;18038;50.166;18.908;2023-05-22T13:03:57;97966.50;;;21.24;28.81
21401;BME280;18038;50.166;18.908;2023-05-22T13:07:08;97959.09;;;21.10;29.77
21401;BME280;18038;50.166;18.908;2023-05-22T13:10:18;97952.22;;;21.55;29.95
21401;BME280;18038;50.166;18.908;2023-05-22T13:13:25;97958.81;;;21.95;29.55
21401;BME280;18038;50.166;18.908;2023-05-22T13:16:46;97963.66;;;21.62;29.18
21401;BME280;18038;50.166;18.908;2023-05-22T13:19:54;97958.75;;;21.59;28.54
21401;BME280;18038;50.166;18.908;2023-05-22T13:23:00;97969.88;;;21.57;28.63
21401;BME280;18038;50.166;18.908;2023-05-22T13:26:10;97950.19;;;21.24;29.57
21401;BME280;18038;50.166;18.908;2023-05-22T13:29:17;97968.97;;;21.36;29.73
21401;BME280;18038;50.166;18.908;2023-05-22T13:32:32;97962.16;;;20.76;29.73
21401;BME280;18038;50.166;18.908;2023-05-22T13:35:38;97958.88;;;20.74;29.87
21401;BME280;18038;50.166;18.908;2023-05-22T13:38:45;97954.22;;;21.12;30.27
21401;BME280;18038;50.166;18.908;2023-05-22T13:41:54;97954.03;;;20.76;29.69
21401;BME280;18038;50.166;18.908;2023-05-22T13:45:02;97952.41;;;20.80;29.66
21401;BME280;18038;50.166;18.908;2023-05-22T13:48:09;97951.69;;;20.90;30.59
21401;BME280;18038;50.166;18.908;2023-05-22T13:51:16;97947.09;;;20.95;29.62
21401;BME280;18038;50.166;18.908;2023-05-22T13:54:22;97946.16;;;20.79;29.87
21401;BME280;18038;50.166;18.908;2023-05-22T13:57:34;97950.00;;;20.46;29.54
21401;BME280;18038;50.166;18.908;2023-05-22T14:00:42;97936.50;;;20.51;30.06
21401;BME280;18038;50.166;18.908;2023-05-22T14:03:49;97942.53;;;20.64;30.43
21401;BME280;18038;50.166;18.908;2023-05-22T14:06:55;97940.56;;;20.54;30.47
21401;BME280;18038;50.166;18.908;2023-05-22T14:10:11;97927.59;;;20.61;30.70
21401;BME280;18038;50.166;18.908;2023-05-22T14:13:21;97926.28;;;20.69;29.99
21401;BME280;18038;50.166;18.908;2023-05-22T14:16:35;97925.41;;;20.58;31.15
21401;BME280;18038;50.166;18.908;2023-05-22T14:19:42;97919.72;;;20.59;31.12
21401;BME280;18038;50.166;18.908;2023-05-22T14:22:50;97921.59;;;20.54;32.12
21401;BME280;18038;50.166;18.908;2023-05-22T14:25:59;97919.19;;;20.57;30.93
21401;BME280;18038;50.166;18.908;2023-05-22T14:29:11;97916.75;;;20.61;30.26
21401;BME280;18038;50.166;18.908;2023-05-22T14:32:18;97914.81;;;20.56;30.78
21401;BME280;18038;50.166;18.908;2023-05-22T14:35:27;97916.66;;;20.46;31.00
21401;BME280;18038;50.166;18.908;2023-05-22T14:38:33;97911.25;;;20.51;31.01
21401;BME280;18038;50.166;18.908;2023-05-22T14:41:43;97905.28;;;20.49;31.20
21401;BME280;18038;50.166;18.908;2023-05-22T14:44:52;97907.16;;;20.43;30.34
21401;BME280;18038;50.166;18.908;2023-05-22T14:47:58;97901.09;;;20.26;30.95
21401;BME280;18038;50.166;18.908;2023-05-22T14:51:04;97901.16;;;20.41;31.42
21401;BME280;18038;50.166;18.908;2023-05-22T14:54:11;97900.16;;;20.52;31.91
21401;BME280;18038;50.166;18.908;2023-05-22T14:57:25;97895.16;;;20.34;31.77
21401;BME280;18038;50.166;18.908;2023-05-22T15:00:37;97895.13;;;20.29;31.79
21401;BME280;18038;50.166;18.908;2023-05-22T15:03:44;97873.19;;;20.35;30.89
21401;BME280;18038;50.166;18.908;2023-05-22T15:06:51;97884.06;;;20.41;30.42
21401;BME280;18038;50.166;18.908;2023-05-22T15:09:57;97899.00;;;20.43;31.08
21401;BME280;18038;50.166;18.908;2023-05-22T15:13:11;97895.44;;;20.38;30.75
21401;BME280;18038;50.166;18.908;2023-05-22T15:16:28;97892.75;;;20.38;30.49
21401;BME280;18038;50.166;18.908;2023-05-22T15:19:37;97892.38;;;20.24;31.13
21401;BME280;18038;50.166;18.908;2023-05-22T15:22:45;97887.03;;;20.34;31.64
21401;BME280;18038;50.166;18.908;2023-05-22T15:25:53;97881.13;;;20.42;31.16
21401;BME280;18038;50.166;18.908;2023-05-22T15:28:59;97883.78;;;20.37;30.42
21401;BME280;18038;50.166;18.908;2023-05-22T15:32:09;97880.00;;;20.38;31.52
21401;BME280;18038;50.166;18.908;2023-05-22T15:35:18;97878.38;;;20.37;30.67
21401;BME280;18038;50.166;18.908;2023-05-22T15:38:25;97871.91;;;20.48;30.34
21401;BME280;18038;50.166;18.908;2023-05-22T15:41:35;97868.44;;;20.58;30.39
21401;BME280;18038;50.166;18.908;2023-05-22T15:44:46;97872.72;;;20.49;30.45
21401;BME280;18038;50.166;18.908;2023-05-22T15:47:54;97874.56;;;20.38;31.87
21401;BME280;18038;50.166;18.908;2023-05-22T15:51:09;97871.75;;;20.18;32.46
21401;BME280;18038;50.166;18.908;2023-05-22T15:54:17;97862.81;;;19.90;32.05
21401;BME280;18038;50.166;18.908;2023-05-22T15:57:26;97873.47;;;19.97;33.16
21401;BME280;18038;50.166;18.908;2023-05-22T16:00:32;97861.81;;;20.01;33.15
21401;BME280;18038;50.166;18.908;2023-05-22T16:03:46;97868.22;;;20.22;32.48
21401;BME280;18038;50.166;18.908;2023-05-22T16:06:52;97849.56;;;19.88;32.18
21401;BME280;18038;50.166;18.908;2023-05-22T16:09:59;97843.03;;;19.89;32.64
21401;BME280;18038;50.166;18.908;2023-05-22T16:13:11;97854.56;;;20.07;32.42
21401;BME280;18038;50.166;18.908;2023-05-22T16:16:33;97845.88;;;20.05;32.54
21401;BME280;18038;50.166;18.908;2023-05-22T16:19:56;97854.56;;;19.75;33.18
21401;BME280;18038;50.166;18.908;2023-05-22T16:23:25;97842.81;;;19.96;32.54
21401;BME280;18038;50.166;18.908;2023-05-22T16:26:46;97854.97;;;19.88;33.21
21401;BME280;18038;50.166;18.908;2023-05-22T16:30:08;97843.53;;;19.81;33.78
21401;BME280;18038;50.166;18.908;2023-05-22T16:33:31;97852.41;;;19.77;32.84
21401;BME280;18038;50.166;18.908;2023-05-22T16:37:00;97846.41;;;19.69;33.25
21401;BME280;18038;50.166;18.908;2023-05-22T16:40:08;97855.41;;;19.80;33.45
21401;BME280;18038;50.166;18.908;2023-05-22T16:43:23;97853.75;;;19.74;33.79
21401;BME280;18038;50.166;18.908;2023-05-22T16:46:30;97864.25;;;19.65;34.07
21401;BME280;18038;50.166;18.908;2023-05-22T16:49:37;97864.63;;;19.47;33.91
21401;BME280;18038;50.166;18.908;2023-05-22T16:52:53;97861.56;;;19.16;33.39
21401;BME280;18038;50.166;18.908;2023-05-22T16:55:59;97865.94;;;18.95;34.00
21401;BME280;18038;50.166;18.908;2023-05-22T16:59:05;97867.44;;;19.08;34.31